sensor_id;sensor_type;location;lat;lon;timestamp;pressure;altitude;pressure_sealevel;temperature;humidity
76478;BME280;65309;49.790;18.972;2023-03-14T00:01:59;95274.09;;;11.19;52.04
76478;BME280;65309;49.790;18.972;2023-03-14T00:07:01;95251.75;;;11.17;51.14
76478;BME280;65309;49.790;18.972;2023-03-14T00:12:04;95311.81;;;11.22;51.95
76478;BME280;65309;49.790;18.972;2023-03-14T00:17:07;95254.38;;;11.28;50.91
76478;BME280;65309;49.790;18.972;2023-03-14T00:22:09;95245.25;;;11.33;51.97
76478;BME280;65309;49.790;18.972;2023-03-14T00:27:11;95235.25;;;11.30;50.72
76478;BME280;65309;49.790;18.972;2023-03-14T00:32:15;95199.47;;;11.32;51.74
76478;BME280;65309;49.790;18.972;2023-03-14T00:37:17;95209.28;;;11.33;51.46
76478;BME280;65309;49.790;18.972;2023-03-14T00:42:19;95180.34;;;11.34;50.95
76478;BME280;65309;49.790;18.972;2023-03-14T00:47:22;95177.56;;;11.34;50.81
76478;BME280;65309;49.790;18.972;2023-03-14T00:52:24;95162.97;;;11.34;51.24
76478;BME280;65309;49.790;18.972;2023-03-14T00:57:26;95117.56;;;11.42;50.49
76478;BME280;65309;49.790;18.972;2023-03-14T01:02:30;95159.75;;;11.48;50.38
76478;BME280;65309;49.790;18.972;2023-03-14T01:07:32;95142.38;;;11.67;50.67
76478;BME280;65309;49.790;18.972;2023-03-14T01:12:34;95098.59;;;11.65;50.30
76478;BME280;65309;49.790;18.972;2023-03-14T01:17:38;95094.72;;;11.74;51.05
76478;BME280;65309;49.790;18.972;2023-03-14T01:22:42;95099.84;;;11.83;49.32
76478;BME280;65309;49.790;18.972;2023-03-14T01:27:44;95081.84;;;11.76;49.65
76478;BME280;65309;49.790;18.972;2023-03-14T01:32:47;95083.88;;;11.76;50.34
76478;BME280;65309;49.790;18.972;2023-03-14T01:37:49;95086.31;;;11.79;48.83
76478;BME280;65309;49.790;18.972;2023-03-14T01:42:55;95068.88;;;11.84;48.65
76478;BME280;65309;49.790;18.972;2023-03-14T01:47:59;95061.31;;;11.85;48.24
76478;BME280;65309;49.790;18.972;2023-03-14T01:53:01;95043.19;;;11.84;48.93
76478;BME280;65309;49.790;18.972;2023-03-14T01:58:03;95020.06;;;11.94;47.45
76478;BME280;65309;49.790;18.972;2023-03-14T02:03:11;94996.56;;;12.14;47.09
76478;BME280;65309;49.790;18.972;2023-03-14T02:08:15;94999.34;;;12.14;46.06
76478;BME280;65309;49.790;18.972;2023-03-14T02:13:21;94989.09;;;12.22;46.13
76478;BME280;65309;49.790;18.972;2023-03-14T02:18:25;94995.81;;;12.27;46.17
76478;BME280;65309;49.790;18.972;2023-03-14T02:23:34;94984.16;;;12.15;46.43
76478;BME280;65309;49.790;18.972;2023-03-14T02:28:40;94981.94;;;12.14;47.99
76478;BME280;65309;49.790;18.972;2023-03-14T02:33:43;94965.22;;;12.06;48.75
76478;BME280;65309;49.790;18.972;2023-03-14T02:38:47;94954.34;;;11.95;48.04
76478;BME280;65309;49.790;18.972;2023-03-14T02:43:57;94951.13;;;11.91;47.83
76478;BME280;65309;49.790;18.972;2023-03-14T02:49:02;94928.78;;;11.89;46.83
76478;BME280;65309;49.790;18.972;2023-03-14T02:54:04;94930.16;;;11.82;48.07
76478;BME280;65309;49.790;18.972;2023-03-14T02:59:08;94925.13;;;11.68;47.80
76478;BME280;65309;49.790;18.972;2023-03-14T03:04:10;94912.75;;;11.56;49.79
76478;BME280;65309;49.790;18.972;2023-03-14T03:09:12;94932.09;;;11.42;50.39
76478;BME280;65309;49.790;18.972;2023-03-14T03:14:15;94982.09;;;11.31;49.43
76478;BME280;65309;49.790;18.972;2023-03-14T03:19:17;95003.03;;;11.14;50.01
76478;BME280;65309;49.790;18.972;2023-03-14T03:24:19;95024.50;;;10.89;49.28
76478;BME280;65309;49.790;18.972;2023-03-14T03:29:22;95059.63;;;10.75;49.02
76478;BME280;65309;49.790;18.972;2023-03-14T03:34:24;95015.69;;;10.72;51.05
76478;BME280;65309;49.790;18.972;2023-03-14T03:39:26;95034.78;;;10.70;49.61
76478;BME280;65309;49.790;18.972;2023-03-14T03:44:30;95031.81;;;10.68;52.02
76478;BME280;65309;49.790;18.972;2023-03-14T03:49:32;94997.75;;;10.59;51.15
76478;BME280;65309;49.790;18.972;2023-03-14T03:54:34;94981.28;;;10.48;51.04
76478;BME280;65309;49.790;18.972;2023-03-14T03:59:38;95000.28;;;10.57;51.66
76478;BME280;65309;49.790;18.972;2023-03-14T04:04:41;95012.53;;;10.62;51.97
76478;BME280;65309;49.790;18.972;2023-03-14T04:09:44;95014.47;;;10.67;50.76
76478;BME280;65309;49.790;18.972;2023-03-14T04:14:47;94993.72;;;10.79;51.83
76478;BME280;65309;49.790;18.972;2023-03-14T04:19:49;95036.25;;;10.76;49.97
76478;BME280;65309;49.790;18.972;2023-03-14T04:24:53;95064.84;;;10.79;49.98
76478;BME280;65309;49.790;18.972;2023-03-14T04:29:56;95104.38;;;10.74;49.96
76478;BME280;65309;49.790;18.972;2023-03-14T04:34:58;95100.59;;;10.52;53.76
76478;BME280;65309;49.790;18.972;2023-03-14T04:40:00;95088.97;;;10.59;53.47
76478;BME280;65309;49.790;18.972;2023-03-14T04:45:06;95096.66;;;10.67;52.87
76478;BME280;65309;49.790;18.972;2023-03-14T04:50:09;95078.94;;;10.56;53.50
76478;BME280;65309;49.790;18.972;2023-03-14T04:55:11;95061.53;;;10.61;54.17
76478;BME280;65309;49.790;18.972;2023-03-14T05:00:17;95089.09;;;10.48;53.14
76478;BME280;65309;49.790;18.972;2023-03-14T05:05:20;95061.69;;;10.50;53.35
76478;BME280;65309;49.790;18.972;2023-03-14T05:10:23;95069.16;;;10.55;53.73
76478;BME280;65309;49.790;18.972;2023-03-14T05:15:26;95080.22;;;10.55;53.49
76478;BME280;65309;49.790;18.972;2023-03-14T05:20:28;95065.66;;;10.55;53.21
76478;BME280;65309;49.790;18.972;2023-03-14T05:25:30;95016.25;;;10.46;54.23
76478;BME280;65309;49.790;18.972;2023-03-14T05:30:34;95004.91;;;10.49;56.68
76478;BME280;65309;49.790;18.972;2023-03-14T05:35:36;95014.69;;;10.50;53.18
76478;BME280;65309;49.790;18.972;2023-03-14T05:40:38;95017.22;;;10.48;53.30
76478;BME280;65309;49.790;18.972;2023-03-14T05:45:42;95011.03;;;10.42;52.95
76478;BME280;65309;49.790;18.972;2023-03-14T05:50:44;95024.44;;;10.33;53.93
76478;BME280;65309;49.790;18.972;2023-03-14T05:55:47;94997.63;;;10.28;53.23
76478;BME280;65309;49.790;18.972;2023-03-14T06:00:50;95015.75;;;10.23;53.57
76478;BME280;65309;49.790;18.972;2023-03-14T06:05:52;95001.69;;;10.27;54.43
76478;BME280;65309;49.790;18.972;2023-03-14T06:10:54;95028.59;;;10.21;55.42
76478;BME280;65309;49.790;18.972;2023-03-14T06:15:59;95004.72;;;10.23;54.39
76478;BME280;65309;49.790;18.972;2023-03-14T06:21:01;94992.63;;;10.26;54.47
76478;BME280;65309;49.790;18.972;2023-03-14T06:26:04;94973.16;;;10.13;54.13
76478;BME280;65309;49.790;18.972;2023-03-14T06:31:07;94938.13;;;10.27;55.39
76478;BME280;65309;49.790;18.972;2023-03-14T06:36:09;94976.50;;;10.30;55.53
76478;BME280;65309;49.790;18.972;2023-03-14T06:41:12;94949.63;;;10.31;54.62
76478;BME280;65309;49.790;18.972;2023-03-14T06:46:16;94978.22;;;10.33;56.51
76478;BME280;65309;49.790;18.972;2023-03-14T06:51:18;94961.72;;;10.46;53.79
76478;BME280;65309;49.790;18.972;2023-03-14T06:56:20;94952.44;;;10.44;53.51
76478;BME280;65309;49.790;18.972;2023-03-14T07:01:25;94905.41;;;10.49;54.15
76478;BME280;65309;49.790;18.972;2023-03-14T07:06:27;94921.88;;;10.74;53.86
76478;BME280;65309;49.790;18.972;2023-03-14T07:11:32;94937.66;;;10.79;55.10
76478;BME280;65309;49.790;18.972;2023-03-14T07:16:36;94924.66;;;10.74;54.68
76478;BME280;65309;49.790;18.972;2023-03-14T07:21:38;94922.31;;;10.78;52.01
76478;BME280;65309;49.790;18.972;2023-03-14T07:26:40;94953.91;;;11.01;53.50
76478;BME280;65309;49.790;18.972;2023-03-14T07:31:44;94965.19;;;11.03;52.62
76478;BME280;65309;49.790;18.972;2023-03-14T07:36:46;94968.19;;;11.05;51.04
76478;BME280;65309;49.790;18.972;2023-03-14T07:41:48;94960.50;;;11.30;53.00
76478;BME280;65309;49.790;18.972;2023-03-14T07:46:51;94988.63;;;11.02;53.79
76478;BME280;65309;49.790;18.972;2023-03-14T07:51:53;95008.75;;;11.16;51.90
76478;BME280;65309;49.790;18.972;2023-03-14T07:56:55;95009.31;;;11.14;53.00
76478;BME280;65309;49.790;18.972;2023-03-14T08:01:59;95007.56;;;11.30;52.50
76478;BME280;65309;49.790;18.972;2023-03-14T08:07:01;95005.31;;;11.28;53.42
76478;BME280;65309;49.790;18.972;2023-03-14T08:12:03;94998.50;;;11.29;53.11
76478;BME280;65309;49.790;18.972;2023-03-14T08:17:07;95004.19;;;11.50;52.97
76478;BME280;65309;49.790;18.972;2023-03-14T08:22:10;95011.84;;;11.44;52.69
76478;BME280;65309;49.790;18.972;2023-03-14T08:27:11;95001.78;;;11.60;53.57
76478;BME280;65309;49.790;18.972;2023-03-14T08:32:17;95025.41;;;11.61;54.43
76478;BME280;65309;49.790;18.972;2023-03-14T08:37:21;95026.59;;;11.65;53.92
76478;BME280;65309;49.790;18.972;2023-03-14T08:42:28;95029.91;;;11.64;53.07
76478;BME280;65309;49.790;18.972;2023-03-14T08:47:31;95008.16;;;11.54;53.89
76478;BME280;65309;49.790;18.972;2023-03-14T08:52:33;95032.63;;;11.50;54.04
76478;BME280;65309;49.790;18.972;2023-03-14T08:57:36;95031.47;;;11.91;53.23
76478;BME280;65309;49.790;18.972;2023-03-14T09:02:39;95034.91;;;12.50;52.31
76478;BME280;65309;49.790;18.972;2023-03-14T09:07:41;95042.78;;;12.85;52.17
76478;BME280;65309;49.790;18.972;2023-03-14T09:12:43;95036.41;;;12.64;50.45
76478;BME280;65309;49.790;18.972;2023-03-14T09:17:47;95064.75;;;12.70;50.07
76478;BME280;65309;49.790;18.972;2023-03-14T09:22:49;95051.94;;;12.93;50.35
76478;BME280;65309;49.790;18.972;2023-03-14T09:27:51;95074.31;;;13.21;52.58
76478;BME280;65309;49.790;18.972;2023-03-14T09:32:54;95077.84;;;13.22;50.04
76478;BME280;65309;49.790;18.972;2023-03-14T09:37:56;95092.13;;;13.60;50.39
76478;BME280;65309;49.790;18.972;2023-03-14T09:42:58;95097.25;;;13.69;48.94
76478;BME280;65309;49.790;18.972;2023-03-14T09:48:03;95090.13;;;13.81;50.15
76478;BME280;65309;49.790;18.972;2023-03-14T09:53:09;95115.88;;;14.02;48.08
76478;BME280;65309;49.790;18.972;2023-03-14T09:58:16;95101.72;;;14.13;48.84
76478;BME280;65309;49.790;18.972;2023-03-14T10:03:25;95083.06;;;13.80;51.17
76478;BME280;65309;49.790;18.972;2023-03-14T10:08:28;95118.56;;;14.15;49.68
76478;BME280;65309;49.790;18.972;2023-03-14T10:13:30;95122.78;;;13.88;50.50
76478;BME280;65309;49.790;18.972;2023-03-14T10:18:34;95111.38;;;13.58;51.54
76478;BME280;65309;49.790;18.972;2023-03-14T10:23:37;95131.41;;;13.43;52.14
76478;BME280;65309;49.790;18.972;2023-03-14T10:28:43;95133.91;;;12.68;51.71
76478;BME280;65309;49.790;18.972;2023-03-14T10:33:59;95150.00;;;12.82;54.03
76478;BME280;65309;49.790;18.972;2023-03-14T10:39:22;95147.22;;;12.69;52.31
76478;BME280;65309;49.790;18.972;2023-03-14T10:44:25;95158.88;;;12.94;53.55
76478;BME280;65309;49.790;18.972;2023-03-14T10:49:30;95140.72;;;13.06;52.49
76478;BME280;65309;49.790;18.972;2023-03-14T10:54:32;95139.81;;;13.51;51.57
76478;BME280;65309;49.790;18.972;2023-03-14T10:59:36;95133.84;;;13.80;51.27
76478;BME280;65309;49.790;18.972;2023-03-14T11:04:54;95134.31;;;13.92;53.69
76478;BME280;65309;49.790;18.972;2023-03-14T11:10:03;95130.25;;;13.93;51.67
76478;BME280;65309;49.790;18.972;2023-03-14T11:15:15;95118.56;;;13.74;50.38
76478;BME280;65309;49.790;18.972;2023-03-14T11:20:32;95122.38;;;13.16;51.45
76478;BME280;65309;49.790;18.972;2023-03-14T11:25:43;95125.97;;;13.38;51.99
76478;BME280;65309;49.790;18.972;2023-03-14T11:30:51;95124.78;;;13.33;52.35
76478;BME280;65309;49.790;18.972;2023-03-14T11:35:59;95124.59;;;13.65;50.94
76478;BME280;65309;49.790;18.972;2023-03-14T11:41:09;95115.25;;;13.42;51.80
76478;BME280;65309;49.790;18.972;2023-03-14T11:46:17;95116.47;;;13.20;52.21
76478;BME280;65309;49.790;18.972;2023-03-14T11:51:25;95112.72;;;13.44;52.14
76478;BME280;65309;49.790;18.972;2023-03-14T11:56:33;95113.28;;;13.03;54.22
76478;BME280;65309;49.790;18.972;2023-03-14T12:01:47;95111.72;;;12.55;54.67
76478;BME280;65309;49.790;18.972;2023-03-14T12:06:56;95109.63;;;12.16;57.05
76478;BME280;65309;49.790;18.972;2023-03-14T12:12:01;95096.63;;;12.24;55.67
76478;BME280;65309;49.790;18.972;2023-03-14T12:17:06;95077.78;;;12.22;57.00
76478;BME280;65309;49.790;18.972;2023-03-14T12:22:30;95088.44;;;12.18;57.23
76478;BME280;65309;49.790;18.972;2023-03-14T12:27:42;95079.22;;;11.97;57.13
76478;BME280;65309;49.790;18.972;2023-03-14T12:33:10;95090.44;;;12.05;58.23
76478;BME280;65309;49.790;18.972;2023-03-14T12:38:14;95102.91;;;11.98;58.99
76478;BME280;65309;49.790;18.972;2023-03-14T12:43:25;95088.25;;;11.66;60.07
76478;BME280;65309;49.790;18.972;2023-03-14T12:48:28;95088.50;;;11.68;60.44
76478;BME280;65309;49.790;18.972;2023-03-14T12:53:53;95101.28;;;11.71;60.92
76478;BME280;65309;49.790;18.972;2023-03-14T12:59:22;95089.63;;;11.59;61.37
76478;BME280;65309;49.790;18.972;2023-03-14T13:04:32;95100.06;;;11.34;62.35
76478;BME280;65309;49.790;18.972;2023-03-14T13:10:04;95101.06;;;11.18;63.08
76478;BME280;65309;49.790;18.972;2023-03-14T13:15:18;95116.91;;;11.18;63.59
76478;BME280;65309;49.790;18.972;2023-03-14T13:20:26;95109.84;;;10.98;64.57
76478;BME280;65309;49.790;18.972;2023-03-14T13:25:32;95130.50;;;10.97;65.14
76478;BME280;65309;49.790;18.972;2023-03-14T13:30:39;95121.88;;;10.82;65.43
76478;BME280;65309;49.790;18.972;2023-03-14T13:35:43;95133.41;;;10.61;66.98
76478;BME280;65309;49.790;18.972;2023-03-14T13:40:48;95134.47;;;10.58;66.44
76478;BME280;65309;49.790;18.972;2023-03-14T13:45:53;95136.53;;;10.52;66.96
76478;BME280;65309;49.790;18.972;2023-03-14T13:50:59;95139.47;;;10.60;67.57
76478;BME280;65309;49.790;18.972;2023-03-14T13:56:04;95139.81;;;10.51;67.89
76478;BME280;65309;49.790;18.972;2023-03-14T14:01:14;95145.00;;;10.36;68.63
76478;BME280;65309;49.790;18.972;2023-03-14T14:06:25;95139.41;;;10.41;70.18
76478;BME280;65309;49.790;18.972;2023-03-14T14:11:42;95144.19;;;10.17;71.48
76478;BME280;65309;49.790;18.972;2023-03-14T14:16:55;95150.69;;;9.84;73.73
76478;BME280;65309;49.790;18.972;2023-03-14T14:22:00;95141.94;;;9.80;75.18
76478;BME280;65309;49.790;18.972;2023-03-14T14:27:13;95131.31;;;9.59;76.12
76478;BME280;65309;49.790;18.972;2023-03-14T14:32:16;95133.16;;;9.46;77.49
76478;BME280;65309;49.790;18.972;2023-03-14T14:37:20;95134.47;;;9.39;78.21
76478;BME280;65309;49.790;18.972;2023-03-14T14:42:26;95134.38;;;9.50;78.25
76478;BME280;65309;49.790;18.972;2023-03-14T14:47:29;95146.78;;;9.27;79.14
76478;BME280;65309;49.790;18.972;2023-03-14T14:52:37;95140.56;;;9.27;79.00
76478;BME280;65309;49.790;18.972;2023-03-14T14:57:49;95141.34;;;9.21;79.08
76478;BME280;65309;49.790;18.972;2023-03-14T15:02:52;95148.38;;;9.17;80.73
76478;BME280;65309;49.790;18.972;2023-03-14T15:07:56;95152.75;;;8.90;83.48
76478;BME280;65309;49.790;18.972;2023-03-14T15:13:00;95152.25;;;8.86;84.08
76478;BME280;65309;49.790;18.972;2023-03-14T15:18:11;95138.47;;;8.86;85.25
76478;BME280;65309;49.790;18.972;2023-03-14T15:23:15;95150.81;;;8.74;85.54
76478;BME280;65309;49.790;18.972;2023-03-14T15:28:21;95150.75;;;8.91;85.25
76478;BME280;65309;49.790;18.972;2023-03-14T15:33:25;95147.00;;;8.88;86.11
76478;BME280;65309;49.790;18.972;2023-03-14T15:38:27;95147.75;;;8.89;85.82
76478;BME280;65309;49.790;18.972;2023-03-14T15:43:31;95152.78;;;8.85;87.03
76478;BME280;65309;49.790;18.972;2023-03-14T15:48:33;95146.78;;;8.81;86.59
76478;BME280;65309;49.790;18.972;2023-03-14T15:53:35;95131.78;;;8.70;86.65
76478;BME280;65309;49.790;18.972;2023-03-14T15:58:41;95116.41;;;8.92;86.54
76478;BME280;65309;49.790;18.972;2023-03-14T16:03:48;95113.06;;;9.10;83.82
76478;BME280;65309;49.790;18.972;2023-03-14T16:08:51;95101.97;;;9.21;82.93
76478;BME280;65309;49.790;18.972;2023-03-14T16:13:54;95065.94;;;9.08;84.19
76478;BME280;65309;49.790;18.972;2023-03-14T16:18:56;95045.19;;;9.01;82.37
76478;BME280;65309;49.790;18.972;2023-03-14T16:23:59;95016.28;;;9.08;80.71
76478;BME280;65309;49.790;18.972;2023-03-14T16:29:03;95036.38;;;9.03;80.54
76478;BME280;65309;49.790;18.972;2023-03-14T16:34:05;95037.69;;;8.96;79.93
76478;BME280;65309;49.790;18.972;2023-03-14T16:39:07;95020.59;;;9.03;78.50
76478;BME280;65309;49.790;18.972;2023-03-14T16:44:10;94994.53;;;8.99;78.33
76478;BME280;65309;49.790;18.972;2023-03-14T16:49:12;95024.06;;;9.09;75.94
76478;BME280;65309;49.790;18.972;2023-03-14T16:54:15;95036.97;;;8.90;76.03
76478;BME280;65309;49.790;18.972;2023-03-14T16:59:19;95064.56;;;8.85;76.37
76478;BME280;65309;49.790;18.972;2023-03-14T17:04:22;95062.69;;;9.04;75.88
76478;BME280;65309;49.790;18.972;2023-03-14T17:09:24;95079.97;;;9.10;74.80
76478;BME280;65309;49.790;18.972;2023-03-14T17:14:28;95087.25;;;9.02;76.73
76478;BME280;65309;49.790;18.972;2023-03-14T17:19:32;95096.63;;;8.93;77.51
76478;BME280;65309;49.790;18.972;2023-03-14T17:24:35;95097.66;;;8.85;78.12
76478;BME280;65309;49.790;18.972;2023-03-14T17:29:39;95097.38;;;8.88;78.53
76478;BME280;65309;49.790;18.972;2023-03-14T17:34:42;95100.63;;;8.87;78.27
76478;BME280;65309;49.790;18.972;2023-03-14T17:39:44;95100.47;;;8.68;78.45
76478;BME280;65309;49.790;18.972;2023-03-14T17:44:48;95098.50;;;8.57;78.21
76478;BME280;65309;49.790;18.972;2023-03-14T17:49:51;95108.28;;;8.64;77.58
76478;BME280;65309;49.790;18.972;2023-03-14T17:54:53;95110.75;;;8.67;77.20
76478;BME280;65309;49.790;18.972;2023-03-14T17:59:57;95100.72;;;8.70;77.23
76478;BME280;65309;49.790;18.972;2023-03-14T18:05:01;95119.72;;;8.73;77.44
76478;BME280;65309;49.790;18.972;2023-03-14T18:10:05;95144.84;;;8.53;76.32
76478;BME280;65309;49.790;18.972;2023-03-14T18:15:10;95145.56;;;8.65;75.98
76478;BME280;65309;49.790;18.972;2023-03-14T18:20:14;95144.59;;;8.62;76.31
76478;BME280;65309;49.790;18.972;2023-03-14T18:25:16;95153.28;;;8.77;75.98
76478;BME280;65309;49.790;18.972;2023-03-14T18:30:23;95147.00;;;8.83;77.35
76478;BME280;65309;49.790;18.972;2023-03-14T18:35:25;95173.88;;;8.76;76.40
76478;BME280;65309;49.790;18.972;2023-03-14T18:40:27;95183.38;;;8.75;76.96
76478;BME280;65309;49.790;18.972;2023-03-14T18:45:31;95198.91;;;8.78;75.10
76478;BME280;65309;49.790;18.972;2023-03-14T18:50:33;95193.88;;;8.77;76.23
76478;BME280;65309;49.790;18.972;2023-03-14T18:55:35;95195.16;;;8.70;76.29
76478;BME280;65309;49.790;18.972;2023-03-14T19:00:39;95200.47;;;8.52;75.91
76478;BME280;65309;49.790;18.972;2023-03-14T19:05:42;95200.47;;;8.35;75.95
76478;BME280;65309;49.790;18.972;2023-03-14T19:10:44;95216.50;;;8.20;77.55
76478;BME280;65309;49.790;18.972;2023-03-14T19:15:49;95215.00;;;8.08;77.90
76478;BME280;65309;49.790;18.972;2023-03-14T19:20:56;95215.50;;;8.01;78.36
76478;BME280;65309;49.790;18.972;2023-03-14T19:25:58;95220.53;;;7.97;78.23
76478;BME280;65309;49.790;18.972;2023-03-14T19:31:08;95228.50;;;7.95;78.93
76478;BME280;65309;49.790;18.972;2023-03-14T19:36:19;95222.00;;;7.98;76.21
76478;BME280;65309;49.790;18.972;2023-03-14T19:41:24;95215.25;;;7.93;77.51
76478;BME280;65309;49.790;18.972;2023-03-14T19:46:28;95199.00;;;8.01;77.30
76478;BME280;65309;49.790;18.972;2023-03-14T19:51:31;95207.25;;;8.01;77.55
76478;BME280;65309;49.790;18.972;2023-03-14T19:56:36;95209.50;;;8.13;73.84
76478;BME280;65309;49.790;18.972;2023-03-14T20:01:41;95213.00;;;8.25;74.68
76478;BME280;65309;49.790;18.972;2023-03-14T20:06:47;95210.75;;;8.18;74.60
76478;BME280;65309;49.790;18.972;2023-03-14T20:11:50;95220.00;;;8.15;75.42
76478;BME280;65309;49.790;18.972;2023-03-14T20:16:53;95232.78;;;7.96;75.19
76478;BME280;65309;49.790;18.972;2023-03-14T20:21:55;95224.50;;;7.96;76.46
76478;BME280;65309;49.790;18.972;2023-03-14T20:26:58;95243.28;;;7.92;75.53
76478;BME280;65309;49.790;18.972;2023-03-14T20:32:01;95225.53;;;7.93;75.07
76478;BME280;65309;49.790;18.972;2023-03-14T20:37:03;95233.50;;;7.91;75.06
76478;BME280;65309;49.790;18.972;2023-03-14T20:42:05;95249.53;;;7.86;74.89
76478;BME280;65309;49.790;18.972;2023-03-14T20:47:10;95248.03;;;7.97;74.01
76478;BME280;65309;49.790;18.972;2023-03-14T20:52:12;95239.50;;;7.83;75.44
76478;BME280;65309;49.790;18.972;2023-03-14T20:57:15;95239.28;;;7.93;74.90
76478;BME280;65309;49.790;18.972;2023-03-14T21:02:18;95253.00;;;7.81;75.57
76478;BME280;65309;49.790;18.972;2023-03-14T21:07:20;95243.00;;;7.78;75.56
76478;BME280;65309;49.790;18.972;2023-03-14T21:12:22;95243.22;;;7.69;75.69
76478;BME280;65309;49.790;18.972;2023-03-14T21:17:26;95250.28;;;7.76;75.48
76478;BME280;65309;49.790;18.972;2023-03-14T21:22:28;95266.50;;;7.68;75.64
76478;BME280;65309;49.790;18.972;2023-03-14T21:27:30;95256.75;;;7.73;76.38
76478;BME280;65309;49.790;18.972;2023-03-14T21:32:33;95268.56;;;7.84;74.95
76478;BME280;65309;49.790;18.972;2023-03-14T21:37:36;95278.06;;;7.83;75.56
76478;BME280;65309;49.790;18.972;2023-03-14T21:42:38;95287.59;;;8.16;74.14
76478;BME280;65309;49.790;18.972;2023-03-14T21:47:41;95306.63;;;8.25;73.48
76478;BME280;65309;49.790;18.972;2023-03-14T21:52:46;95311.69;;;8.43;72.80
76478;BME280;65309;49.790;18.972;2023-03-14T21:57:48;95338.22;;;8.68;71.52
76478;BME280;65309;49.790;18.972;2023-03-14T22:02:52;95327.69;;;8.72;72.12
76478;BME280;65309;49.790;18.972;2023-03-14T22:08:14;95329.47;;;8.75;71.34
76478;BME280;65309;49.790;18.972;2023-03-14T22:13:17;95344.75;;;8.71;71.07
76478;BME280;65309;49.790;18.972;2023-03-14T22:18:21;95357.78;;;8.76;71.02
76478;BME280;65309;49.790;18.972;2023-03-14T22:23:23;95350.75;;;8.75;72.02
76478;BME280;65309;49.790;18.972;2023-03-14T22:28:25;95361.03;;;8.74;70.70
76478;BME280;65309;49.790;18.972;2023-03-14T22:33:28;95368.81;;;8.70;71.10
76478;BME280;65309;49.790;18.972;2023-03-14T22:38:30;95359.53;;;8.79;71.52
76478;BME280;65309;49.790;18.972;2023-03-14T22:43:32;95373.31;;;8.62;71.79
76478;BME280;65309;49.790;18.972;2023-03-14T22:48:35;95375.59;;;8.64;71.43
76478;BME280;65309;49.790;18.972;2023-03-14T22:53:37;95382.31;;;8.57;71.66
76478;BME280;65309;49.790;18.972;2023-03-14T22:58:39;95396.38;;;8.59;72.29
76478;BME280;65309;49.790;18.972;2023-03-14T23:03:43;95409.59;;;8.44;73.49
76478;BME280;65309;49.790;18.972;2023-03-14T23:08:45;95426.91;;;8.50;72.77
76478;BME280;65309;49.790;18.972;2023-03-14T23:13:47;95462.94;;;8.30;74.28
76478;BME280;65309;49.790;18.972;2023-03-14T23:18:50;95561.44;;;6.38;81.20
76478;BME280;65309;49.790;18.972;2023-03-14T23:23:52;95589.09;;;5.50;85.52
76478;BME280;65309;49.790;18.972;2023-03-14T23:28:55;95596.09;;;5.07;87.30
76478;BME280;65309;49.790;18.972;2023-03-14T23:33:58;95625.94;;;4.90;88.56
76478;BME280;65309;49.790;18.972;2023-03-14T23:39:00;95642.81;;;4.74;90.02
76478;BME280;65309;49.790;18.972;2023-03-14T23:44:02;95658.59;;;4.55;90.75
76478;BME280;65309;49.790;18.972;2023-03-14T23:49:06;95679.28;;;4.09;90.48
76478;BME280;65309;49.790;18.972;2023-03-14T23:54:07;95713.00;;;3.64;88.00
76478;BME280;65309;49.790;18.972;2023-03-14T23:59:09;95742.50;;;3.14;84.27
